sensor_id;sensor_type;location;lat;lon;timestamp;P1;durP1;ratioP1;P2;durP2;ratioP2
77573;SDS011;66710;48.868;9.080;2023-04-15T00:02:12;5.85;;;3.50;;
77573;SDS011;66710;48.868;9.080;2023-04-15T00:04:38;8.18;;;3.75;;
77573;SDS011;66710;48.868;9.080;2023-04-15T00:07:04;7.68;;;3.70;;
77573;SDS011;66710;48.868;9.080;2023-04-15T00:09:29;6.72;;;3.47;;
77573;SDS011;66710;48.868;9.080;2023-04-15T00:11:54;7.65;;;3.53;;
77573;SDS011;66710;48.868;9.080;2023-04-15T00:14:19;6.65;;;3.40;;
77573;SDS011;66710;48.868;9.080;2023-04-15T00:16:45;9.23;;;3.88;;
77573;SDS011;66710;48.868;9.080;2023-04-15T00:19:10;8.13;;;3.50;;
77573;SDS011;66710;48.868;9.080;2023-04-15T00:21:36;8.00;;;3.58;;
77573;SDS011;66710;48.868;9.080;2023-04-15T00:24:01;6.28;;;3.65;;
77573;SDS011;66710;48.868;9.080;2023-04-15T00:26:26;8.63;;;3.72;;
77573;SDS011;66710;48.868;9.080;2023-04-15T00:28:51;6.45;;;3.22;;
77573;SDS011;66710;48.868;9.080;2023-04-15T00:31:17;8.45;;;3.47;;
77573;SDS011;66710;48.868;9.080;2023-04-15T00:33:43;9.23;;;3.70;;
77573;SDS011;66710;48.868;9.080;2023-04-15T00:36:08;6.97;;;3.50;;
77573;SDS011;66710;48.868;9.080;2023-04-15T00:38:35;6.68;;;3.30;;
77573;SDS011;66710;48.868;9.080;2023-04-15T00:41:01;8.55;;;4.20;;
77573;SDS011;66710;48.868;9.080;2023-04-15T00:43:27;6.55;;;3.60;;
77573;SDS011;66710;48.868;9.080;2023-04-15T00:45:53;6.55;;;3.60;;
77573;SDS011;66710;48.868;9.080;2023-04-15T00:48:21;6.10;;;3.30;;
77573;SDS011;66710;48.868;9.080;2023-04-15T00:50:47;5.53;;;3.15;;
77573;SDS011;66710;48.868;9.080;2023-04-15T00:53:12;7.68;;;3.50;;
77573;SDS011;66710;48.868;9.080;2023-04-15T00:55:37;6.75;;;3.63;;
77573;SDS011;66710;48.868;9.080;2023-04-15T00:58:03;7.45;;;3.72;;
77573;SDS011;66710;48.868;9.080;2023-04-15T01:00:29;7.25;;;3.45;;
77573;SDS011;66710;48.868;9.080;2023-04-15T01:02:55;6.57;;;3.33;;
77573;SDS011;66710;48.868;9.080;2023-04-15T01:05:20;7.05;;;3.35;;
77573;SDS011;66710;48.868;9.080;2023-04-15T01:07:46;6.65;;;3.42;;
77573;SDS011;66710;48.868;9.080;2023-04-15T01:10:12;7.32;;;3.58;;
77573;SDS011;66710;48.868;9.080;2023-04-15T01:12:38;6.25;;;3.05;;
77573;SDS011;66710;48.868;9.080;2023-04-15T01:15:04;9.50;;;3.63;;
77573;SDS011;66710;48.868;9.080;2023-04-15T01:17:30;8.25;;;3.97;;
77573;SDS011;66710;48.868;9.080;2023-04-15T01:19:56;6.75;;;3.45;;
77573;SDS011;66710;48.868;9.080;2023-04-15T01:22:22;8.75;;;3.65;;
77573;SDS011;66710;48.868;9.080;2023-04-15T01:25:01;11.02;;;3.78;;
77573;SDS011;66710;48.868;9.080;2023-04-15T01:27:33;8.02;;;3.88;;
77573;SDS011;66710;48.868;9.080;2023-04-15T01:29:59;6.72;;;3.42;;
77573;SDS011;66710;48.868;9.080;2023-04-15T01:32:25;6.63;;;3.63;;
77573;SDS011;66710;48.868;9.080;2023-04-15T01:34:51;9.70;;;3.42;;
77573;SDS011;66710;48.868;9.080;2023-04-15T01:37:16;6.70;;;3.35;;
77573;SDS011;66710;48.868;9.080;2023-04-15T01:39:42;6.10;;;3.70;;
77573;SDS011;66710;48.868;9.080;2023-04-15T01:42:07;7.38;;;3.33;;
77573;SDS011;66710;48.868;9.080;2023-04-15T01:44:32;7.68;;;3.92;;
77573;SDS011;66710;48.868;9.080;2023-04-15T01:46:58;9.38;;;4.10;;
77573;SDS011;66710;48.868;9.080;2023-04-15T01:49:23;8.98;;;3.75;;
77573;SDS011;66710;48.868;9.080;2023-04-15T01:51:49;9.75;;;3.75;;
77573;SDS011;66710;48.868;9.080;2023-04-15T01:54:14;10.15;;;3.88;;
77573;SDS011;66710;48.868;9.080;2023-04-15T01:56:40;8.93;;;3.70;;
77573;SDS011;66710;48.868;9.080;2023-04-15T01:59:06;5.95;;;3.17;;
77573;SDS011;66710;48.868;9.080;2023-04-15T02:01:31;6.55;;;3.70;;
77573;SDS011;66710;48.868;9.080;2023-04-15T02:03:57;7.20;;;3.25;;
77573;SDS011;66710;48.868;9.080;2023-04-15T02:06:22;8.60;;;3.65;;
77573;SDS011;66710;48.868;9.080;2023-04-15T02:08:48;6.78;;;3.42;;
77573;SDS011;66710;48.868;9.080;2023-04-15T02:11:13;6.65;;;3.28;;
77573;SDS011;66710;48.868;9.080;2023-04-15T02:13:39;6.53;;;3.28;;
77573;SDS011;66710;48.868;9.080;2023-04-15T02:16:13;7.43;;;3.30;;
77573;SDS011;66710;48.868;9.080;2023-04-15T02:18:40;7.72;;;3.30;;
77573;SDS011;66710;48.868;9.080;2023-04-15T02:21:05;7.40;;;3.28;;
77573;SDS011;66710;48.868;9.080;2023-04-15T02:23:31;5.07;;;2.83;;
77573;SDS011;66710;48.868;9.080;2023-04-15T02:25:56;5.53;;;2.90;;
77573;SDS011;66710;48.868;9.080;2023-04-15T02:28:22;6.07;;;3.00;;
77573;SDS011;66710;48.868;9.080;2023-04-15T02:30:50;7.80;;;3.13;;
77573;SDS011;66710;48.868;9.080;2023-04-15T02:33:17;7.22;;;3.15;;
77573;SDS011;66710;48.868;9.080;2023-04-15T02:35:43;7.55;;;3.20;;
77573;SDS011;66710;48.868;9.080;2023-04-15T02:38:09;5.80;;;3.17;;
77573;SDS011;66710;48.868;9.080;2023-04-15T02:40:35;6.63;;;3.03;;
77573;SDS011;66710;48.868;9.080;2023-04-15T02:43:01;7.65;;;3.33;;
77573;SDS011;66710;48.868;9.080;2023-04-15T02:45:27;6.95;;;3.35;;
77573;SDS011;66710;48.868;9.080;2023-04-15T02:47:52;8.13;;;3.75;;
77573;SDS011;66710;48.868;9.080;2023-04-15T02:50:18;6.65;;;3.22;;
77573;SDS011;66710;48.868;9.080;2023-04-15T02:52:45;6.93;;;3.33;;
77573;SDS011;66710;48.868;9.080;2023-04-15T02:55:10;6.38;;;3.20;;
77573;SDS011;66710;48.868;9.080;2023-04-15T02:57:36;6.35;;;3.35;;
77573;SDS011;66710;48.868;9.080;2023-04-15T03:00:03;6.88;;;3.50;;
77573;SDS011;66710;48.868;9.080;2023-04-15T03:02:33;7.93;;;3.40;;
77573;SDS011;66710;48.868;9.080;2023-04-15T03:05:02;7.38;;;3.35;;
77573;SDS011;66710;48.868;9.080;2023-04-15T03:07:28;8.50;;;3.50;;
77573;SDS011;66710;48.868;9.080;2023-04-15T03:09:53;5.93;;;2.92;;
77573;SDS011;66710;48.868;9.080;2023-04-15T03:12:19;8.70;;;3.05;;
77573;SDS011;66710;48.868;9.080;2023-04-15T03:14:44;13.23;;;3.47;;
77573;SDS011;66710;48.868;9.080;2023-04-15T03:17:10;9.02;;;3.42;;
77573;SDS011;66710;48.868;9.080;2023-04-15T03:19:35;7.03;;;3.40;;
77573;SDS011;66710;48.868;9.080;2023-04-15T03:22:00;5.78;;;3.30;;
77573;SDS011;66710;48.868;9.080;2023-04-15T03:24:26;6.95;;;3.10;;
77573;SDS011;66710;48.868;9.080;2023-04-15T03:26:53;8.02;;;3.38;;
77573;SDS011;66710;48.868;9.080;2023-04-15T03:29:19;6.10;;;3.40;;
77573;SDS011;66710;48.868;9.080;2023-04-15T03:31:44;5.38;;;2.60;;
77573;SDS011;66710;48.868;9.080;2023-04-15T03:34:10;5.55;;;2.58;;
77573;SDS011;66710;48.868;9.080;2023-04-15T03:36:35;6.15;;;3.00;;
77573;SDS011;66710;48.868;9.080;2023-04-15T03:39:01;6.35;;;2.97;;
77573;SDS011;66710;48.868;9.080;2023-04-15T03:41:27;6.80;;;3.30;;
77573;SDS011;66710;48.868;9.080;2023-04-15T03:43:52;6.30;;;3.10;;
77573;SDS011;66710;48.868;9.080;2023-04-15T03:46:18;7.38;;;3.30;;
77573;SDS011;66710;48.868;9.080;2023-04-15T03:48:44;5.85;;;3.40;;
77573;SDS011;66710;48.868;9.080;2023-04-15T03:51:09;5.55;;;2.95;;
77573;SDS011;66710;48.868;9.080;2023-04-15T03:53:35;6.47;;;3.25;;
77573;SDS011;66710;48.868;9.080;2023-04-15T03:56:01;4.90;;;2.50;;
77573;SDS011;66710;48.868;9.080;2023-04-15T03:58:26;7.03;;;3.20;;
77573;SDS011;66710;48.868;9.080;2023-04-15T04:00:51;6.30;;;3.15;;
77573;SDS011;66710;48.868;9.080;2023-04-15T04:03:17;7.55;;;2.80;;
77573;SDS011;66710;48.868;9.080;2023-04-15T04:05:42;6.93;;;2.78;;
77573;SDS011;66710;48.868;9.080;2023-04-15T04:08:08;4.90;;;2.72;;
77573;SDS011;66710;48.868;9.080;2023-04-15T04:10:34;6.03;;;2.92;;
77573;SDS011;66710;48.868;9.080;2023-04-15T04:12:59;6.57;;;2.80;;
77573;SDS011;66710;48.868;9.080;2023-04-15T04:15:25;8.68;;;3.35;;
77573;SDS011;66710;48.868;9.080;2023-04-15T04:17:51;7.28;;;3.17;;
77573;SDS011;66710;48.868;9.080;2023-04-15T04:20:16;6.32;;;3.17;;
77573;SDS011;66710;48.868;9.080;2023-04-15T04:22:42;6.18;;;3.00;;
77573;SDS011;66710;48.868;9.080;2023-04-15T04:25:07;6.90;;;3.05;;
77573;SDS011;66710;48.868;9.080;2023-04-15T04:27:34;5.57;;;2.60;;
77573;SDS011;66710;48.868;9.080;2023-04-15T04:30:00;7.88;;;2.88;;
77573;SDS011;66710;48.868;9.080;2023-04-15T04:32:26;5.28;;;2.63;;
77573;SDS011;66710;48.868;9.080;2023-04-15T04:34:51;5.57;;;2.72;;
77573;SDS011;66710;48.868;9.080;2023-04-15T04:37:16;6.03;;;3.00;;
77573;SDS011;66710;48.868;9.080;2023-04-15T04:39:42;6.82;;;2.20;;
77573;SDS011;66710;48.868;9.080;2023-04-15T04:42:08;7.53;;;3.10;;
77573;SDS011;66710;48.868;9.080;2023-04-15T04:44:33;6.80;;;3.33;;
77573;SDS011;66710;48.868;9.080;2023-04-15T04:46:58;7.00;;;2.97;;
77573;SDS011;66710;48.868;9.080;2023-04-15T04:49:24;6.05;;;3.17;;
77573;SDS011;66710;48.868;9.080;2023-04-15T04:51:49;8.15;;;3.53;;
77573;SDS011;66710;48.868;9.080;2023-04-15T04:54:15;5.40;;;3.00;;
77573;SDS011;66710;48.868;9.080;2023-04-15T04:56:40;7.30;;;3.35;;
77573;SDS011;66710;48.868;9.080;2023-04-15T04:59:06;6.65;;;3.25;;
77573;SDS011;66710;48.868;9.080;2023-04-15T05:01:31;7.13;;;3.38;;
77573;SDS011;66710;48.868;9.080;2023-04-15T05:03:57;6.53;;;3.25;;
77573;SDS011;66710;48.868;9.080;2023-04-15T05:06:22;8.45;;;2.92;;
77573;SDS011;66710;48.868;9.080;2023-04-15T05:08:47;5.45;;;2.90;;
77573;SDS011;66710;48.868;9.080;2023-04-15T05:11:13;8.13;;;3.50;;
77573;SDS011;66710;48.868;9.080;2023-04-15T05:13:38;6.22;;;3.67;;
77573;SDS011;66710;48.868;9.080;2023-04-15T05:16:04;9.23;;;3.45;;
77573;SDS011;66710;48.868;9.080;2023-04-15T05:18:30;7.63;;;3.47;;
77573;SDS011;66710;48.868;9.080;2023-04-15T05:20:56;8.25;;;4.00;;
77573;SDS011;66710;48.868;9.080;2023-04-15T05:23:21;6.47;;;3.10;;
77573;SDS011;66710;48.868;9.080;2023-04-15T05:25:47;8.00;;;3.50;;
77573;SDS011;66710;48.868;9.080;2023-04-15T05:28:12;8.50;;;3.28;;
77573;SDS011;66710;48.868;9.080;2023-04-15T05:30:37;6.93;;;3.70;;
77573;SDS011;66710;48.868;9.080;2023-04-15T05:33:03;6.97;;;3.67;;
77573;SDS011;66710;48.868;9.080;2023-04-15T05:35:28;6.78;;;3.35;;
77573;SDS011;66710;48.868;9.080;2023-04-15T05:37:54;6.78;;;3.55;;
77573;SDS011;66710;48.868;9.080;2023-04-15T05:40:19;6.47;;;3.60;;
77573;SDS011;66710;48.868;9.080;2023-04-15T05:42:45;8.30;;;3.38;;
77573;SDS011;66710;48.868;9.080;2023-04-15T05:45:10;9.60;;;3.70;;
77573;SDS011;66710;48.868;9.080;2023-04-15T05:47:36;8.43;;;3.85;;
77573;SDS011;66710;48.868;9.080;2023-04-15T05:50:01;6.47;;;3.42;;
77573;SDS011;66710;48.868;9.080;2023-04-15T05:52:28;9.25;;;3.50;;
77573;SDS011;66710;48.868;9.080;2023-04-15T05:54:53;7.95;;;3.33;;
77573;SDS011;66710;48.868;9.080;2023-04-15T05:57:18;5.00;;;3.03;;
77573;SDS011;66710;48.868;9.080;2023-04-15T05:59:44;4.97;;;2.90;;
77573;SDS011;66710;48.868;9.080;2023-04-15T06:02:09;5.80;;;2.92;;
77573;SDS011;66710;48.868;9.080;2023-04-15T06:04:34;5.22;;;2.97;;
77573;SDS011;66710;48.868;9.080;2023-04-15T06:07:00;7.47;;;3.30;;
77573;SDS011;66710;48.868;9.080;2023-04-15T06:09:26;8.65;;;3.05;;
77573;SDS011;66710;48.868;9.080;2023-04-15T06:11:52;7.28;;;3.05;;
77573;SDS011;66710;48.868;9.080;2023-04-15T06:14:18;7.20;;;3.10;;
77573;SDS011;66710;48.868;9.080;2023-04-15T06:16:43;6.65;;;2.90;;
77573;SDS011;66710;48.868;9.080;2023-04-15T06:19:09;8.15;;;2.95;;
77573;SDS011;66710;48.868;9.080;2023-04-15T06:21:34;5.78;;;2.97;;
77573;SDS011;66710;48.868;9.080;2023-04-15T06:24:00;7.25;;;3.47;;
77573;SDS011;66710;48.868;9.080;2023-04-15T06:26:26;6.22;;;3.03;;
77573;SDS011;66710;48.868;9.080;2023-04-15T06:28:52;7.30;;;3.40;;
77573;SDS011;66710;48.868;9.080;2023-04-15T06:31:17;9.38;;;3.35;;
77573;SDS011;66710;48.868;9.080;2023-04-15T06:33:43;6.07;;;3.10;;
77573;SDS011;66710;48.868;9.080;2023-04-15T06:36:08;7.78;;;2.80;;
77573;SDS011;66710;48.868;9.080;2023-04-15T06:38:33;12.23;;;3.33;;
77573;SDS011;66710;48.868;9.080;2023-04-15T06:40:59;8.73;;;3.05;;
77573;SDS011;66710;48.868;9.080;2023-04-15T06:43:25;6.63;;;3.20;;
77573;SDS011;66710;48.868;9.080;2023-04-15T06:45:50;6.07;;;2.90;;
77573;SDS011;66710;48.868;9.080;2023-04-15T06:48:15;9.15;;;2.90;;
77573;SDS011;66710;48.868;9.080;2023-04-15T06:50:41;6.82;;;2.88;;
77573;SDS011;66710;48.868;9.080;2023-04-15T06:53:07;5.55;;;2.85;;
77573;SDS011;66710;48.868;9.080;2023-04-15T06:55:32;4.85;;;2.55;;
77573;SDS011;66710;48.868;9.080;2023-04-15T06:57:58;8.25;;;3.10;;
77573;SDS011;66710;48.868;9.080;2023-04-15T07:00:23;5.47;;;2.70;;
77573;SDS011;66710;48.868;9.080;2023-04-15T07:02:49;6.15;;;2.80;;
77573;SDS011;66710;48.868;9.080;2023-04-15T07:05:15;6.85;;;3.15;;
77573;SDS011;66710;48.868;9.080;2023-04-15T07:07:41;6.75;;;2.72;;
77573;SDS011;66710;48.868;9.080;2023-04-15T07:10:07;7.15;;;3.10;;
77573;SDS011;66710;48.868;9.080;2023-04-15T07:12:32;6.65;;;3.70;;
77573;SDS011;66710;48.868;9.080;2023-04-15T07:14:59;7.35;;;3.45;;
77573;SDS011;66710;48.868;9.080;2023-04-15T07:17:24;7.70;;;3.95;;
77573;SDS011;66710;48.868;9.080;2023-04-15T07:19:50;7.15;;;3.83;;
77573;SDS011;66710;48.868;9.080;2023-04-15T07:22:16;7.07;;;3.70;;
77573;SDS011;66710;48.868;9.080;2023-04-15T07:24:41;7.53;;;3.65;;
77573;SDS011;66710;48.868;9.080;2023-04-15T07:27:06;5.38;;;3.13;;
77573;SDS011;66710;48.868;9.080;2023-04-15T07:29:32;5.90;;;3.15;;
77573;SDS011;66710;48.868;9.080;2023-04-15T07:31:57;5.22;;;3.22;;
77573;SDS011;66710;48.868;9.080;2023-04-15T07:34:23;7.35;;;2.97;;
77573;SDS011;66710;48.868;9.080;2023-04-15T07:36:48;5.88;;;3.30;;
77573;SDS011;66710;48.868;9.080;2023-04-15T07:39:17;5.30;;;2.67;;
77573;SDS011;66710;48.868;9.080;2023-04-15T07:41:43;4.32;;;2.53;;
77573;SDS011;66710;48.868;9.080;2023-04-15T07:44:08;4.18;;;2.42;;
77573;SDS011;66710;48.868;9.080;2023-04-15T07:46:33;6.53;;;3.00;;
77573;SDS011;66710;48.868;9.080;2023-04-15T07:48:59;7.57;;;2.78;;
77573;SDS011;66710;48.868;9.080;2023-04-15T07:51:27;6.53;;;2.90;;
77573;SDS011;66710;48.868;9.080;2023-04-15T07:53:54;7.60;;;2.90;;
77573;SDS011;66710;48.868;9.080;2023-04-15T07:56:19;8.13;;;4.60;;
77573;SDS011;66710;48.868;9.080;2023-04-15T07:58:46;6.60;;;3.25;;
77573;SDS011;66710;48.868;9.080;2023-04-15T08:01:11;4.28;;;2.80;;
77573;SDS011;66710;48.868;9.080;2023-04-15T08:03:37;8.38;;;3.00;;
77573;SDS011;66710;48.868;9.080;2023-04-15T08:06:03;7.55;;;2.67;;
77573;SDS011;66710;48.868;9.080;2023-04-15T08:08:28;5.30;;;2.90;;
77573;SDS011;66710;48.868;9.080;2023-04-15T08:10:54;7.30;;;2.85;;
77573;SDS011;66710;48.868;9.080;2023-04-15T08:13:19;4.93;;;3.00;;
77573;SDS011;66710;48.868;9.080;2023-04-15T08:15:45;6.93;;;2.97;;
77573;SDS011;66710;48.868;9.080;2023-04-15T08:18:11;6.68;;;3.30;;
77573;SDS011;66710;48.868;9.080;2023-04-15T08:20:36;5.85;;;2.85;;
77573;SDS011;66710;48.868;9.080;2023-04-15T08:23:02;5.85;;;3.10;;
77573;SDS011;66710;48.868;9.080;2023-04-15T08:25:28;5.28;;;2.70;;
77573;SDS011;66710;48.868;9.080;2023-04-15T08:27:54;5.50;;;2.70;;
77573;SDS011;66710;48.868;9.080;2023-04-15T08:30:21;5.70;;;2.80;;
77573;SDS011;66710;48.868;9.080;2023-04-15T08:32:46;5.80;;;3.28;;
77573;SDS011;66710;48.868;9.080;2023-04-15T08:35:12;4.90;;;3.00;;
77573;SDS011;66710;48.868;9.080;2023-04-15T08:37:37;6.30;;;2.80;;
77573;SDS011;66710;48.868;9.080;2023-04-15T08:40:03;5.18;;;2.63;;
77573;SDS011;66710;48.868;9.080;2023-04-15T08:42:35;5.10;;;2.40;;
77573;SDS011;66710;48.868;9.080;2023-04-15T08:45:05;4.60;;;2.65;;
77573;SDS011;66710;48.868;9.080;2023-04-15T08:47:34;7.63;;;2.67;;
77573;SDS011;66710;48.868;9.080;2023-04-15T08:50:02;5.63;;;2.88;;
77573;SDS011;66710;48.868;9.080;2023-04-15T08:52:29;7.18;;;3.00;;
77573;SDS011;66710;48.868;9.080;2023-04-15T08:54:55;6.25;;;3.05;;
77573;SDS011;66710;48.868;9.080;2023-04-15T08:57:26;5.40;;;2.95;;
77573;SDS011;66710;48.868;9.080;2023-04-15T08:59:54;5.72;;;2.83;;
77573;SDS011;66710;48.868;9.080;2023-04-15T09:02:20;5.20;;;3.10;;
77573;SDS011;66710;48.868;9.080;2023-04-15T09:04:47;6.43;;;3.08;;
77573;SDS011;66710;48.868;9.080;2023-04-15T09:07:12;5.53;;;3.05;;
77573;SDS011;66710;48.868;9.080;2023-04-15T09:09:37;6.15;;;3.38;;
77573;SDS011;66710;48.868;9.080;2023-04-15T09:12:04;6.18;;;3.10;;
77573;SDS011;66710;48.868;9.080;2023-04-15T09:14:29;6.15;;;3.05;;
77573;SDS011;66710;48.868;9.080;2023-04-15T09:17:02;5.63;;;2.78;;
77573;SDS011;66710;48.868;9.080;2023-04-15T09:19:28;5.60;;;2.80;;
77573;SDS011;66710;48.868;9.080;2023-04-15T09:21:56;6.35;;;2.70;;
77573;SDS011;66710;48.868;9.080;2023-04-15T09:24:22;6.90;;;3.00;;
77573;SDS011;66710;48.868;9.080;2023-04-15T09:26:50;6.80;;;3.08;;
77573;SDS011;66710;48.868;9.080;2023-04-15T09:29:18;5.18;;;2.92;;
77573;SDS011;66710;48.868;9.080;2023-04-15T09:31:44;7.00;;;3.03;;
77573;SDS011;66710;48.868;9.080;2023-04-15T09:34:10;5.60;;;3.13;;
77573;SDS011;66710;48.868;9.080;2023-04-15T09:36:37;5.10;;;2.75;;
77573;SDS011;66710;48.868;9.080;2023-04-15T09:39:16;6.22;;;3.30;;
77573;SDS011;66710;48.868;9.080;2023-04-15T09:41:42;5.78;;;3.00;;
77573;SDS011;66710;48.868;9.080;2023-04-15T09:44:21;5.80;;;2.60;;
77573;SDS011;66710;48.868;9.080;2023-04-15T09:46:47;6.00;;;2.85;;
77573;SDS011;66710;48.868;9.080;2023-04-15T09:49:13;6.82;;;2.85;;
77573;SDS011;66710;48.868;9.080;2023-04-15T09:51:38;5.45;;;2.55;;
77573;SDS011;66710;48.868;9.080;2023-04-15T09:54:03;4.25;;;2.85;;
77573;SDS011;66710;48.868;9.080;2023-04-15T09:56:36;6.07;;;3.08;;
77573;SDS011;66710;48.868;9.080;2023-04-15T09:59:05;4.00;;;2.50;;
77573;SDS011;66710;48.868;9.080;2023-04-15T10:01:31;5.05;;;2.50;;
77573;SDS011;66710;48.868;9.080;2023-04-15T10:03:57;5.35;;;2.70;;
77573;SDS011;66710;48.868;9.080;2023-04-15T10:06:25;4.70;;;2.95;;
77573;SDS011;66710;48.868;9.080;2023-04-15T10:08:51;4.90;;;2.95;;
77573;SDS011;66710;48.868;9.080;2023-04-15T10:11:17;5.05;;;3.30;;
77573;SDS011;66710;48.868;9.080;2023-04-15T10:13:45;5.90;;;3.00;;
77573;SDS011;66710;48.868;9.080;2023-04-15T10:16:13;5.05;;;2.75;;
77573;SDS011;66710;48.868;9.080;2023-04-15T10:18:41;4.88;;;2.65;;
77573;SDS011;66710;48.868;9.080;2023-04-15T10:21:09;4.97;;;2.90;;
77573;SDS011;66710;48.868;9.080;2023-04-15T10:23:35;5.13;;;2.70;;
77573;SDS011;66710;48.868;9.080;2023-04-15T10:26:00;7.25;;;2.90;;
77573;SDS011;66710;48.868;9.080;2023-04-15T10:28:28;5.47;;;3.22;;
77573;SDS011;66710;48.868;9.080;2023-04-15T10:30:53;6.13;;;3.17;;
77573;SDS011;66710;48.868;9.080;2023-04-15T10:33:21;5.97;;;2.70;;
77573;SDS011;66710;48.868;9.080;2023-04-15T10:35:47;8.65;;;2.65;;
77573;SDS011;66710;48.868;9.080;2023-04-15T10:38:34;5.88;;;2.80;;
77573;SDS011;66710;48.868;9.080;2023-04-15T10:41:23;5.15;;;2.60;;
77573;SDS011;66710;48.868;9.080;2023-04-15T10:43:51;5.38;;;2.47;;
77573;SDS011;66710;48.868;9.080;2023-04-15T10:46:22;5.95;;;2.50;;
77573;SDS011;66710;48.868;9.080;2023-04-15T10:48:50;4.03;;;2.42;;
77573;SDS011;66710;48.868;9.080;2023-04-15T10:51:29;5.97;;;2.80;;
77573;SDS011;66710;48.868;9.080;2023-04-15T10:53:56;9.15;;;2.78;;
77573;SDS011;66710;48.868;9.080;2023-04-15T10:56:23;5.07;;;2.83;;
77573;SDS011;66710;48.868;9.080;2023-04-15T10:58:48;6.57;;;2.40;;
77573;SDS011;66710;48.868;9.080;2023-04-15T11:01:14;4.07;;;2.60;;
77573;SDS011;66710;48.868;9.080;2023-04-15T11:03:40;5.00;;;2.85;;
77573;SDS011;66710;48.868;9.080;2023-04-15T11:06:07;5.75;;;2.70;;
77573;SDS011;66710;48.868;9.080;2023-04-15T11:08:51;4.93;;;2.63;;
77573;SDS011;66710;48.868;9.080;2023-04-15T11:14:39;5.60;;;3.00;;
77573;SDS011;66710;48.868;9.080;2023-04-15T11:17:05;5.35;;;3.00;;
77573;SDS011;66710;48.868;9.080;2023-04-15T11:19:35;5.47;;;2.92;;
77573;SDS011;66710;48.868;9.080;2023-04-15T11:22:08;6.78;;;2.92;;
77573;SDS011;66710;48.868;9.080;2023-04-15T11:24:35;5.80;;;3.10;;
77573;SDS011;66710;48.868;9.080;2023-04-15T11:27:01;6.63;;;3.83;;
77573;SDS011;66710;48.868;9.080;2023-04-15T11:29:30;5.45;;;3.47;;
77573;SDS011;66710;48.868;9.080;2023-04-15T11:32:05;5.75;;;2.88;;
77573;SDS011;66710;48.868;9.080;2023-04-15T11:34:33;4.68;;;2.70;;
77573;SDS011;66710;48.868;9.080;2023-04-15T11:36:59;4.90;;;2.90;;
77573;SDS011;66710;48.868;9.080;2023-04-15T11:39:28;5.25;;;3.10;;
77573;SDS011;66710;48.868;9.080;2023-04-15T11:41:53;6.45;;;3.08;;
77573;SDS011;66710;48.868;9.080;2023-04-15T11:44:18;6.82;;;3.20;;
77573;SDS011;66710;48.868;9.080;2023-04-15T11:46:44;5.82;;;2.90;;
77573;SDS011;66710;48.868;9.080;2023-04-15T11:49:09;6.47;;;3.17;;
77573;SDS011;66710;48.868;9.080;2023-04-15T11:51:35;6.63;;;3.00;;
77573;SDS011;66710;48.868;9.080;2023-04-15T11:54:00;5.88;;;3.50;;
77573;SDS011;66710;48.868;9.080;2023-04-15T11:56:26;6.38;;;3.33;;
77573;SDS011;66710;48.868;9.080;2023-04-15T11:58:55;5.47;;;2.92;;
77573;SDS011;66710;48.868;9.080;2023-04-15T12:01:35;8.70;;;3.55;;
77573;SDS011;66710;48.868;9.080;2023-04-15T12:04:10;5.43;;;3.00;;
77573;SDS011;66710;48.868;9.080;2023-04-15T12:06:39;5.75;;;3.22;;
77573;SDS011;66710;48.868;9.080;2023-04-15T12:16:49;4.22;;;3.00;;
77573;SDS011;66710;48.868;9.080;2023-04-15T12:19:25;6.13;;;3.60;;
77573;SDS011;66710;48.868;9.080;2023-04-15T12:21:54;7.38;;;3.80;;
77573;SDS011;66710;48.868;9.080;2023-04-15T12:24:23;6.22;;;3.47;;
77573;SDS011;66710;48.868;9.080;2023-04-15T12:26:49;8.23;;;4.13;;
77573;SDS011;66710;48.868;9.080;2023-04-15T12:29:17;6.60;;;3.80;;
77573;SDS011;66710;48.868;9.080;2023-04-15T12:31:49;5.68;;;3.85;;
77573;SDS011;66710;48.868;9.080;2023-04-15T12:34:16;6.70;;;4.20;;
77573;SDS011;66710;48.868;9.080;2023-04-15T12:36:42;6.95;;;4.53;;
77573;SDS011;66710;48.868;9.080;2023-04-15T12:39:08;7.22;;;4.47;;
77573;SDS011;66710;48.868;9.080;2023-04-15T12:41:33;6.80;;;4.07;;
77573;SDS011;66710;48.868;9.080;2023-04-15T12:43:59;5.72;;;3.90;;
77573;SDS011;66710;48.868;9.080;2023-04-15T12:46:25;6.25;;;3.15;;
77573;SDS011;66710;48.868;9.080;2023-04-15T12:48:51;6.07;;;3.60;;
77573;SDS011;66710;48.868;9.080;2023-04-15T12:51:17;5.80;;;3.40;;
77573;SDS011;66710;48.868;9.080;2023-04-15T12:53:45;5.47;;;3.50;;
77573;SDS011;66710;48.868;9.080;2023-04-15T12:56:11;5.88;;;3.47;;
77573;SDS011;66710;48.868;9.080;2023-04-15T12:58:37;5.38;;;3.25;;
77573;SDS011;66710;48.868;9.080;2023-04-15T13:01:02;5.00;;;3.10;;
77573;SDS011;66710;48.868;9.080;2023-04-15T13:03:28;6.63;;;2.97;;
77573;SDS011;66710;48.868;9.080;2023-04-15T13:05:53;4.88;;;2.47;;
77573;SDS011;66710;48.868;9.080;2023-04-15T13:08:18;5.22;;;2.45;;
77573;SDS011;66710;48.868;9.080;2023-04-15T13:10:44;5.13;;;2.65;;
77573;SDS011;66710;48.868;9.080;2023-04-15T13:13:10;5.45;;;2.40;;
77573;SDS011;66710;48.868;9.080;2023-04-15T13:15:35;4.20;;;2.30;;
77573;SDS011;66710;48.868;9.080;2023-04-15T13:18:00;4.18;;;2.10;;
77573;SDS011;66710;48.868;9.080;2023-04-15T13:20:26;6.65;;;2.67;;
77573;SDS011;66710;48.868;9.080;2023-04-15T13:22:52;3.97;;;2.30;;
77573;SDS011;66710;48.868;9.080;2023-04-15T13:25:18;3.35;;;1.70;;
77573;SDS011;66710;48.868;9.080;2023-04-15T13:27:43;4.45;;;1.95;;
77573;SDS011;66710;48.868;9.080;2023-04-15T13:30:09;3.67;;;1.75;;
77573;SDS011;66710;48.868;9.080;2023-04-15T13:32:34;4.32;;;2.00;;
77573;SDS011;66710;48.868;9.080;2023-04-15T13:35:00;4.60;;;2.40;;
77573;SDS011;66710;48.868;9.080;2023-04-15T13:37:28;3.70;;;1.52;;
77573;SDS011;66710;48.868;9.080;2023-04-15T13:39:54;3.97;;;1.77;;
77573;SDS011;66710;48.868;9.080;2023-04-15T13:42:20;5.18;;;1.90;;
77573;SDS011;66710;48.868;9.080;2023-04-15T13:44:46;2.70;;;1.60;;
77573;SDS011;66710;48.868;9.080;2023-04-15T13:47:11;4.07;;;1.80;;
77573;SDS011;66710;48.868;9.080;2023-04-15T13:49:38;3.55;;;2.08;;
77573;SDS011;66710;48.868;9.080;2023-04-15T13:52:04;3.67;;;1.80;;
77573;SDS011;66710;48.868;9.080;2023-04-15T13:54:30;3.50;;;2.00;;
77573;SDS011;66710;48.868;9.080;2023-04-15T13:56:55;3.67;;;1.80;;
77573;SDS011;66710;48.868;9.080;2023-04-15T13:59:22;3.60;;;1.80;;
77573;SDS011;66710;48.868;9.080;2023-04-15T14:01:47;3.20;;;1.70;;
77573;SDS011;66710;48.868;9.080;2023-04-15T14:04:13;4.80;;;1.60;;
77573;SDS011;66710;48.868;9.080;2023-04-15T14:06:39;4.97;;;1.52;;
77573;SDS011;66710;48.868;9.080;2023-04-15T14:09:05;3.85;;;2.10;;
77573;SDS011;66710;48.868;9.080;2023-04-15T14:11:30;4.70;;;1.80;;
77573;SDS011;66710;48.868;9.080;2023-04-15T14:13:55;3.80;;;1.70;;
77573;SDS011;66710;48.868;9.080;2023-04-15T14:16:21;4.75;;;1.90;;
77573;SDS011;66710;48.868;9.080;2023-04-15T14:18:46;3.67;;;1.98;;
77573;SDS011;66710;48.868;9.080;2023-04-15T14:21:12;3.67;;;2.10;;
77573;SDS011;66710;48.868;9.080;2023-04-15T14:23:37;4.00;;;1.75;;
77573;SDS011;66710;48.868;9.080;2023-04-15T14:26:03;3.13;;;1.83;;
77573;SDS011;66710;48.868;9.080;2023-04-15T14:28:28;5.63;;;1.98;;
77573;SDS011;66710;48.868;9.080;2023-04-15T14:30:54;3.75;;;1.75;;
77573;SDS011;66710;48.868;9.080;2023-04-15T14:33:19;4.15;;;1.88;;
77573;SDS011;66710;48.868;9.080;2023-04-15T14:35:44;5.05;;;2.17;;
77573;SDS011;66710;48.868;9.080;2023-04-15T14:38:10;4.18;;;2.00;;
77573;SDS011;66710;48.868;9.080;2023-04-15T14:40:35;3.85;;;1.90;;
77573;SDS011;66710;48.868;9.080;2023-04-15T14:43:01;4.18;;;2.38;;
77573;SDS011;66710;48.868;9.080;2023-04-15T14:45:27;4.32;;;2.13;;
77573;SDS011;66710;48.868;9.080;2023-04-15T14:47:54;3.72;;;2.10;;
77573;SDS011;66710;48.868;9.080;2023-04-15T14:50:20;4.10;;;2.10;;
77573;SDS011;66710;48.868;9.080;2023-04-15T14:52:45;3.92;;;2.20;;
77573;SDS011;66710;48.868;9.080;2023-04-15T14:55:11;4.57;;;2.00;;